Time;durP1;ratioP1;P1;durP2;ratioP2;P2;SDS_P1;SDS_P2;PMS_P1;PMS_P2;Temp;Humidity;BMP_temperature;BMP_pressure;BME280_temperature;BME280_humidity;BME280_pressure;Samples;Min_cycle;Max_cycle;Signal;HPM_P1;HPM_P2
2023/05/06 00:03:54;;;;;;;9.35;7.00;;;;;;;;;;10058016;28;20052;-68
2023/05/06 00:08:48;;;;;;;9.57;6.25;;;;;;;;;;10060606;28;20140;-67
2023/05/06 00:13:43;;;;;;;6.20;5.65;;;;;;;;;;10060686;28;20053;-67
2023/05/06 00:18:38;;;;;;;7.20;5.40;;;;;;;;;;10066227;28;20465;-70
2023/05/06 00:23:34;;;;;;;7.43;5.85;;;;;;;;;;10057553;28;20049;-69
2023/05/06 00:28:29;;;;;;;6.50;5.20;;;;;;;;;;10058277;28;20096;-68
2023/05/06 00:33:22;;;;;;;7.85;5.63;;;;;;;;;;10056300;28;20065;-68
2023/05/06 00:38:15;;;;;;;5.97;5.45;;;;;;;;;;10053232;28;20132;-69
2023/05/06 00:43:09;;;;;;;5.65;5.15;;;;;;;;;;10035060;28;20046;-68
2023/05/06 00:48:03;;;;;;;6.15;5.55;;;;;;;;;;10046595;28;20042;-68
2023/05/06 00:52:57;;;;;;;5.80;5.18;;;;;;;;;;10040755;28;20069;-69
2023/05/06 00:57:51;;;;;;;5.43;4.93;;;;;;;;;;10036825;28;20493;-70
2023/05/06 01:02:45;;;;;;;6.25;5.20;;;;;;;;;;10063937;28;20123;-68
2023/05/06 01:08:00;;;;;;;6.55;5.38;;;;;;;;;;10032875;28;20389;-70
2023/05/06 01:13:21;;;;;;;7.53;6.32;;;;;;;;;;10040567;28;20509;-69
2023/05/06 01:18:34;;;;;;;6.90;6.25;;;;;;;;;;9985762;28;20073;-69
2023/05/06 01:23:28;;;;;;;6.03;4.57;;;;;;;;;;10057825;28;20112;-68
2023/05/06 01:28:21;;;;;;;5.28;4.88;;;;;;;;;;10036602;28;20049;-68
2023/05/06 01:33:20;;;;;;;7.55;5.25;;;;;;;;;;10039993;28;20068;-67
2023/05/06 01:38:34;;;;;;;5.45;4.88;;;;;;;;;;10035370;28;20213;-69
2023/05/06 01:43:33;;;;;;;8.02;5.07;;;;;;;;;;10042547;28;20091;-68
2023/05/06 01:48:28;;;;;;;;;;;;;;;;;;10026839;28;20112;-69
2023/05/06 01:53:21;;;;;;;7.80;4.82;;;;;;;;;;10029216;28;19928;-68
2023/05/06 01:58:15;;;;;;;6.13;5.53;;;;;;;;;;10035338;28;20071;-69
2023/05/06 02:03:08;;;;;;;9.65;4.78;;;;;;;;;;10045614;28;20084;-70
2023/05/06 02:08:03;;;;;;;7.22;5.70;;;;;;;;;;10038283;28;20060;-68
2023/05/06 02:12:57;;;;;;;5.22;4.40;;;;;;;;;;10040025;28;21469;-68
2023/05/06 02:17:50;;;;;;;7.13;4.82;;;;;;;;;;10065614;28;20103;-69
2023/05/06 02:22:43;;;;;;;5.88;5.38;;;;;;;;;;10036992;28;20049;-68
2023/05/06 02:27:36;;;;;;;8.07;5.10;;;;;;;;;;10042162;28;20053;-68
2023/05/06 02:32:29;;;;;;;7.53;6.72;;;;;;;;;;10039558;28;20489;-70
2023/05/06 02:37:23;;;;;;;7.50;6.85;;;;;;;;;;10038577;28;20041;-69
2023/05/06 02:42:17;;;;;;;7.63;6.93;;;;;;;;;;10050931;28;20045;-70
2023/05/06 02:47:09;;;;;;;7.65;6.85;;;;;;;;;;10058380;28;20478;-70
2023/05/06 02:52:03;;;;;;;6.90;6.20;;;;;;;;;;10063040;28;20080;-70
2023/05/06 02:56:55;;;;;;;7.00;6.32;;;;;;;;;;10056295;28;20053;-69
2023/05/06 03:01:50;;;;;;;8.45;7.75;;;;;;;;;;10061423;28;20112;-69
2023/05/06 03:06:43;;;;;;;8.15;6.88;;;;;;;;;;10065842;28;20053;-70
2023/05/06 03:11:36;;;;;;;7.68;6.85;;;;;;;;;;10051867;28;20483;-69
2023/05/06 03:16:30;;;;;;;10.70;7.97;;;;;;;;;;10037757;28;20057;-70
2023/05/06 03:21:25;;;;;;;9.55;7.65;;;;;;;;;;10044238;28;20053;-70
2023/05/06 03:26:18;;;;;;;8.50;7.32;;;;;;;;;;10059190;28;20054;-69
2023/05/06 03:31:12;;;;;;;7.70;6.40;;;;;;;;;;10056166;28;20046;-69
2023/05/06 03:36:06;;;;;;;6.05;5.45;;;;;;;;;;10052432;28;20056;-69
2023/05/06 03:41:02;;;;;;;5.90;5.38;;;;;;;;;;10058939;28;20067;-67
2023/05/06 03:45:56;;;;;;;5.47;4.93;;;;;;;;;;10047228;28;20141;-69
2023/05/06 03:50:50;;;;;;;7.60;6.00;;;;;;;;;;10056621;28;20610;-68
2023/05/06 03:55:43;;;;;;;9.63;7.47;;;;;;;;;;10054314;28;20053;-68
2023/05/06 04:00:38;;;;;;;11.15;6.72;;;;;;;;;;10047896;28;20054;-67
2023/05/06 04:05:32;;;;;;;9.00;6.30;;;;;;;;;;10043155;28;20489;-68
2023/05/06 04:10:26;;;;;;;8.20;7.40;;;;;;;;;;10047647;28;20046;-68
2023/05/06 04:15:25;;;;;;;;;;;;;;;;;;10028005;28;20405;-69
2023/05/06 04:20:18;;;;;;;10.15;8.48;;;;;;;;;;10040023;28;19922;-69
2023/05/06 04:25:11;;;;;;;8.32;7.28;;;;;;;;;;10030819;28;20107;-68
2023/05/06 04:30:09;;;;;;;10.48;7.82;;;;;;;;;;10031401;28;20061;-69
2023/05/06 04:35:05;;;;;;;9.07;8.10;;;;;;;;;;10027398;28;20054;-69
2023/05/06 04:39:59;;;;;;;8.77;7.03;;;;;;;;;;10037055;28;20144;-67
2023/05/06 04:44:53;;;;;;;12.95;7.85;;;;;;;;;;10050220;28;20041;-69
2023/05/06 04:49:51;;;;;;;10.40;6.40;;;;;;;;;;10058072;28;20097;-68
2023/05/06 04:54:46;;;;;;;7.00;6.40;;;;;;;;;;10050315;28;20056;-69
2023/05/06 04:59:41;;;;;;;13.20;6.97;;;;;;;;;;10034569;28;20046;-68
2023/05/06 05:04:35;;;;;;;8.00;6.07;;;;;;;;;;10044780;28;20049;-68
2023/05/06 05:09:29;;;;;;;8.23;6.68;;;;;;;;;;10048672;28;20112;-79
2023/05/06 05:14:22;;;;;;;10.68;7.63;;;;;;;;;;10055407;28;20059;-72
2023/05/06 05:19:16;;;;;;;8.60;7.80;;;;;;;;;;10041752;28;20049;-73
2023/05/06 05:24:10;;;;;;;12.63;7.60;;;;;;;;;;10064778;28;20050;-70
2023/05/06 05:29:03;;;;;;;10.95;7.32;;;;;;;;;;10042047;28;20421;-68
2023/05/06 05:33:56;;;;;;;7.88;7.07;;;;;;;;;;10039645;28;20140;-71
2023/05/06 05:38:51;;;;;;;8.93;7.13;;;;;;;;;;10059410;28;20050;-68
2023/05/06 05:43:45;;;;;;;11.55;7.95;;;;;;;;;;10053444;28;20072;-68
2023/05/06 05:48:39;;;;;;;10.25;8.38;;;;;;;;;;10040469;28;20097;-68
2023/05/06 05:53:33;;;;;;;11.15;10.00;;;;;;;;;;10069944;28;20063;-69
2023/05/06 05:58:28;;;;;;;10.45;8.02;;;;;;;;;;10047713;28;20053;-67
2023/05/06 06:03:23;;;;;;;9.88;8.20;;;;;;;;;;10044427;28;20053;-67
2023/05/06 06:08:17;;;;;;;10.85;9.45;;;;;;;;;;10060116;28;20155;-66
2023/05/06 06:13:13;;;;;;;10.07;7.85;;;;;;;;;;10047091;28;20037;-66
2023/05/06 06:18:09;;;;;;;8.13;7.07;;;;;;;;;;10037937;28;20049;-67
2023/05/06 06:23:03;;;;;;;8.50;7.10;;;;;;;;;;10036217;28;20489;-68
2023/05/06 06:27:57;;;;;;;12.27;8.23;;;;;;;;;;10045483;28;20498;-66
2023/05/06 06:32:51;;;;;;;8.90;7.35;;;;;;;;;;10047398;28;20084;-67
2023/05/06 06:37:43;;;;;;;7.25;6.50;;;;;;;;;;10038358;28;20493;-67
2023/05/06 06:42:37;;;;;;;10.68;6.38;;;;;;;;;;10049331;28;20540;-67
2023/05/06 06:47:35;;;;;;;8.48;7.53;;;;;;;;;;10044001;28;20049;-67
2023/05/06 06:52:28;;;;;;;10.18;5.53;;;;;;;;;;10042847;28;20061;-69
2023/05/06 06:57:22;;;;;;;5.75;5.25;;;;;;;;;;10034687;28;20128;-67
2023/05/06 07:02:15;;;;;;;9.32;6.60;;;;;;;;;;10041823;28;20054;-74
2023/05/06 07:07:07;;;;;;;10.13;7.07;;;;;;;;;;10045258;28;20049;-77
2023/05/06 07:12:01;;;;;;;8.52;6.30;;;;;;;;;;10050667;28;20060;-71
2023/05/06 07:16:54;;;;;;;9.82;6.43;;;;;;;;;;10042510;28;20126;-67
2023/05/06 07:21:49;;;;;;;8.75;6.47;;;;;;;;;;10049409;28;20508;-73
2023/05/06 07:26:46;;;;;;;10.88;6.60;;;;;;;;;;10046601;28;20053;-74
2023/05/06 07:31:40;;;;;;;5.95;5.07;;;;;;;;;;10051153;28;20508;-75
2023/05/06 07:36:39;;;;;;;7.65;5.15;;;;;;;;;;10056526;28;20053;-74
2023/05/06 07:41:33;;;;;;;6.00;5.32;;;;;;;;;;10036313;28;20046;-72
2023/05/06 07:46:27;;;;;;;9.73;6.35;;;;;;;;;;10042760;28;20046;-71
2023/05/06 07:51:22;;;;;;;8.88;6.05;;;;;;;;;;10050163;28;20049;-71
2023/05/06 07:56:17;;;;;;;9.10;7.28;;;;;;;;;;10038200;28;20037;-73
2023/05/06 08:01:10;;;;;;;13.90;11.48;;;;;;;;;;10032305;28;20057;-72
2023/05/06 08:06:04;;;;;;;11.45;9.65;;;;;;;;;;10038466;28;20053;-73
2023/05/06 08:10:58;;;;;;;8.90;8.10;;;;;;;;;;10042173;28;20402;-73
2023/05/06 08:15:50;;;;;;;9.45;7.43;;;;;;;;;;10046966;28;20095;-74
2023/05/06 08:20:44;;;;;;;9.32;7.15;;;;;;;;;;10049946;28;20602;-74
2023/05/06 08:25:38;;;;;;;6.38;5.63;;;;;;;;;;10041107;28;20064;-72
2023/05/06 08:30:31;;;;;;;7.63;6.70;;;;;;;;;;10030806;28;20109;-74
2023/05/06 08:35:26;;;;;;;7.13;6.32;;;;;;;;;;10052880;28;20057;-74
2023/05/06 08:40:22;;;;;;;7.78;6.10;;;;;;;;;;10064161;28;20115;-75
2023/05/06 08:45:16;;;;;;;5.35;4.85;;;;;;;;;;10034026;28;20124;-75
2023/05/06 08:50:11;;;;;;;4.78;4.38;;;;;;;;;;10032670;28;20045;-74
2023/05/06 08:55:05;;;;;;;6.85;5.45;;;;;;;;;;10029217;28;20061;-74
2023/05/06 09:00:00;;;;;;;7.25;5.95;;;;;;;;;;10037135;28;20053;-75
2023/05/06 09:04:54;;;;;;;6.47;5.72;;;;;;;;;;10048704;28;20052;-75
2023/05/06 09:09:48;;;;;;;6.03;4.80;;;;;;;;;;10046816;28;20087;-75
2023/05/06 09:14:42;;;;;;;5.00;3.80;;;;;;;;;;10065156;28;20057;-76
2023/05/06 09:19:37;;;;;;;4.93;3.83;;;;;;;;;;10060684;28;20085;-75
2023/05/06 09:24:31;;;;;;;6.10;4.05;;;;;;;;;;10041787;28;20137;-77
2023/05/06 09:29:25;;;;;;;6.13;3.40;;;;;;;;;;10057528;28;20057;-77
2023/05/06 09:34:19;;;;;;;7.45;4.30;;;;;;;;;;10027461;28;20073;-75
2023/05/06 09:39:14;;;;;;;5.55;3.95;;;;;;;;;;10041601;28;20076;-75
2023/05/06 09:44:07;;;;;;;7.35;4.72;;;;;;;;;;10054173;28;20041;-75
2023/05/06 09:49:00;;;;;;;7.00;4.38;;;;;;;;;;10058044;28;20053;-76
2023/05/06 09:53:56;;;;;;;5.03;3.90;;;;;;;;;;10038108;28;20050;-76
2023/05/06 09:58:51;;;;;;;7.32;4.72;;;;;;;;;;10044244;28;20385;-76
2023/05/06 10:03:45;;;;;;;9.43;5.47;;;;;;;;;;10045961;28;20053;-77
2023/05/06 10:08:40;;;;;;;5.43;4.93;;;;;;;;;;10061015;28;20061;-76
2023/05/06 10:13:34;;;;;;;9.68;4.40;;;;;;;;;;10033958;28;20046;-77
2023/05/06 10:18:29;;;;;;;5.28;4.18;;;;;;;;;;10035921;28;20484;-77
2023/05/06 10:23:34;;;;;;;4.18;3.78;;;;;;;;;;10039625;28;20057;-77
2023/05/06 10:28:29;;;;;;;6.55;4.40;;;;;;;;;;10037470;28;20049;-78
2023/05/06 10:33:24;;;;;;;4.32;3.92;;;;;;;;;;10043017;28;20096;-77
2023/05/06 10:38:29;;;;;;;4.35;3.92;;;;;;;;;;10030385;28;20398;-73
2023/05/06 10:43:30;;;;;;;5.43;3.70;;;;;;;;;;10047163;28;20133;-76
2023/05/06 10:48:23;;;;;;;5.47;3.13;;;;;;;;;;10038702;28;20056;-77
2023/05/06 10:53:17;;;;;;;4.95;4.22;;;;;;;;;;10050690;28;20191;-75
2023/05/06 10:58:10;;;;;;;4.50;3.95;;;;;;;;;;10053443;28;20057;-76
2023/05/06 11:03:08;;;;;;;3.47;2.58;;;;;;;;;;10046441;28;20054;-76
2023/05/06 11:08:11;;;;;;;5.55;3.47;;;;;;;;;;10051909;28;20050;-77
2023/05/06 11:13:28;;;;;;;6.10;3.67;;;;;;;;;;10047810;28;20567;-77
2023/05/06 11:18:28;;;;;;;4.70;3.03;;;;;;;;;;10056757;28;20053;-77
2023/05/06 11:23:45;;;;;;;4.25;3.85;;;;;;;;;;10050094;28;20080;-76
2023/05/06 11:28:41;;;;;;;4.80;2.47;;;;;;;;;;10048273;28;20488;-76
2023/05/06 11:33:35;;;;;;;4.63;2.03;;;;;;;;;;10044606;28;20062;-73
2023/05/06 11:38:44;;;;;;;4.63;2.70;;;;;;;;;;10045453;28;20049;-74
2023/05/06 11:43:38;;;;;;;3.17;2.95;;;;;;;;;;10045370;28;20070;-74
2023/05/06 11:48:32;;;;;;;5.05;2.80;;;;;;;;;;10050677;28;20057;-78
2023/05/06 11:53:25;;;;;;;3.95;2.80;;;;;;;;;;10041379;28;20140;-69
2023/05/06 11:58:24;;;;;;;2.90;2.70;;;;;;;;;;10045655;28;20049;-79
2023/05/06 12:03:18;;;;;;;5.43;3.08;;;;;;;;;;10051292;28;20060;-77
2023/05/06 12:08:12;;;;;;;5.07;3.53;;;;;;;;;;10054125;28;20049;-74
2023/05/06 12:13:18;;;;;;;4.28;3.95;;;;;;;;;;10045805;28;20104;-76
2023/05/06 12:18:11;;;;;;;4.28;3.38;;;;;;;;;;10044296;28;20050;-75
2023/05/06 12:23:12;;;;;;;5.72;3.28;;;;;;;;;;10048487;28;20564;-73
2023/05/06 12:28:19;;;;;;;4.57;3.28;;;;;;;;;;10041184;28;20152;-74
2023/05/06 12:33:12;;;;;;;6.05;2.75;;;;;;;;;;10047954;28;20053;-74
2023/05/06 12:38:09;;;;;;;4.13;3.43;;;;;;;;;;10049317;28;20057;-74
2023/05/06 12:43:03;;;;;;;3.00;2.58;;;;;;;;;;10047602;28;20049;-73
2023/05/06 12:48:04;;;;;;;4.13;2.70;;;;;;;;;;10043655;28;20152;-76
2023/05/06 12:52:58;;;;;;;4.28;3.85;;;;;;;;;;10042581;28;20057;-71
2023/05/06 12:57:52;;;;;;;4.10;2.72;;;;;;;;;;10039439;28;20054;-73
2023/05/06 13:02:48;;;;;;;3.40;3.10;;;;;;;;;;10047469;28;20049;-71
2023/05/06 13:07:41;;;;;;;4.32;3.03;;;;;;;;;;10041890;28;20512;-73
2023/05/06 13:12:34;;;;;;;7.25;3.45;;;;;;;;;;10046495;28;20054;-72
2023/05/06 13:17:28;;;;;;;4.95;3.20;;;;;;;;;;10050631;28;20060;-72
2023/05/06 13:22:21;;;;;;;5.47;3.42;;;;;;;;;;10049245;28;20061;-73
2023/05/06 13:27:15;;;;;;;1.88;1.77;;;;;;;;;;10044383;28;20054;-72
2023/05/06 13:32:09;;;;;;;3.08;2.78;;;;;;;;;;10047565;28;20434;-77
2023/05/06 13:37:03;;;;;;;3.03;2.70;;;;;;;;;;10055470;28;20059;-71
2023/05/06 13:41:56;;;;;;;4.55;3.10;;;;;;;;;;10049573;28;20057;-71
2023/05/06 13:46:51;;;;;;;4.32;2.50;;;;;;;;;;10045473;28;20409;-70
2023/05/06 13:51:44;;;;;;;9.25;3.50;;;;;;;;;;10041987;28;20050;-71
2023/05/06 13:56:37;;;;;;;2.80;2.60;;;;;;;;;;10043600;28;20045;-73
2023/05/06 14:01:34;;;;;;;2.72;2.40;;;;;;;;;;10047529;28;20046;-71
2023/05/06 14:06:27;;;;;;;5.05;2.63;;;;;;;;;;10046520;28;20057;-72
2023/05/06 14:11:21;;;;;;;4.28;2.88;;;;;;;;;;10045576;28;20038;-73
2023/05/06 14:16:15;;;;;;;3.20;2.55;;;;;;;;;;10049512;28;20069;-74
2023/05/06 14:21:09;;;;;;;4.38;2.60;;;;;;;;;;10053851;28;20045;-73
2023/05/06 14:26:02;;;;;;;3.08;2.78;;;;;;;;;;10045156;28;20085;-72
2023/05/06 14:30:57;;;;;;;3.47;3.17;;;;;;;;;;10051503;28;20065;-72
2023/05/06 14:35:51;;;;;;;3.67;2.95;;;;;;;;;;10047092;28;20045;-73
2023/05/06 14:40:45;;;;;;;3.47;3.13;;;;;;;;;;10032847;28;20515;-73
2023/05/06 14:45:38;;;;;;;5.97;3.17;;;;;;;;;;10049039;28;20092;-72
2023/05/06 14:50:31;;;;;;;3.95;3.28;;;;;;;;;;10041439;28;20531;-73
2023/05/06 14:55:24;;;;;;;3.70;3.40;;;;;;;;;;10048714;28;20045;-71
2023/05/06 15:00:17;;;;;;;3.55;3.25;;;;;;;;;;10046862;28;20444;-71
2023/05/06 15:05:11;;;;;;;3.83;3.10;;;;;;;;;;10047204;28;20057;-72
2023/05/06 15:10:05;;;;;;;4.38;3.58;;;;;;;;;;10038601;28;20061;-71
2023/05/06 15:14:59;;;;;;;5.75;3.38;;;;;;;;;;10050326;28;20103;-71
2023/05/06 15:19:53;;;;;;;5.35;2.83;;;;;;;;;;10049970;28;20140;-70
2023/05/06 15:24:46;;;;;;;3.97;3.20;;;;;;;;;;10037797;28;20045;-72
2023/05/06 15:29:39;;;;;;;6.40;4.63;;;;;;;;;;10049641;28;20517;-72
2023/05/06 15:34:33;;;;;;;5.80;3.90;;;;;;;;;;10068741;28;20091;-70
2023/05/06 15:39:26;;;;;;;5.82;4.15;;;;;;;;;;10046193;28;20052;-71
2023/05/06 15:44:20;;;;;;;6.30;3.75;;;;;;;;;;10048490;28;20078;-69
2023/05/06 15:49:14;;;;;;;4.40;3.80;;;;;;;;;;10044282;28;20041;-71
2023/05/06 15:54:27;;;;;;;4.78;4.15;;;;;;;;;;10049760;28;20046;-71
2023/05/06 15:59:21;;;;;;;7.10;4.05;;;;;;;;;;10050444;28;20065;-71
2023/05/06 16:04:14;;;;;;;6.57;3.95;;;;;;;;;;10039396;28;20058;-72
2023/05/06 16:09:09;;;;;;;4.82;4.22;;;;;;;;;;10041206;28;20144;-71
2023/05/06 16:14:01;;;;;;;4.30;3.75;;;;;;;;;;10039463;28;20172;-71
2023/05/06 16:18:55;;;;;;;4.68;3.90;;;;;;;;;;10038146;28;20061;-71
2023/05/06 16:23:48;;;;;;;4.45;4.05;;;;;;;;;;10045230;28;20563;-76
2023/05/06 16:28:42;;;;;;;10.13;4.78;;;;;;;;;;10053058;28;20296;-74
2023/05/06 16:33:36;;;;;;;4.43;4.03;;;;;;;;;;10043620;28;20053;-72
2023/05/06 16:38:29;;;;;;;5.30;4.15;;;;;;;;;;10048621;28;20050;-71
2023/05/06 16:43:23;;;;;;;5.57;4.28;;;;;;;;;;10052718;28;20061;-75
2023/05/06 16:48:16;;;;;;;5.63;5.05;;;;;;;;;;10045314;28;20061;-79
2023/05/06 16:53:09;;;;;;;4.68;4.28;;;;;;;;;;10052272;28;20062;-79
2023/05/06 16:58:03;;;;;;;4.93;4.18;;;;;;;;;;10053551;28;20563;-78
2023/05/06 17:02:56;;;;;;;5.60;4.68;;;;;;;;;;10054148;28;20059;-75
2023/05/06 17:07:50;;;;;;;7.13;4.47;;;;;;;;;;10058203;28;20144;-72
2023/05/06 17:12:42;;;;;;;5.88;4.85;;;;;;;;;;10045150;28;20089;-72
2023/05/06 17:17:35;;;;;;;5.30;4.80;;;;;;;;;;10037651;28;20060;-72
2023/05/06 17:22:29;;;;;;;5.47;4.50;;;;;;;;;;10049205;28;20505;-72
2023/05/06 17:27:23;;;;;;;6.03;4.75;;;;;;;;;;10045722;28;20048;-71
2023/05/06 17:32:16;;;;;;;5.82;4.63;;;;;;;;;;10042275;28;20041;-71
2023/05/06 17:37:10;;;;;;;5.15;4.65;;;;;;;;;;10045572;28;20062;-71
2023/05/06 17:42:03;;;;;;;7.05;4.60;;;;;;;;;;10028676;28;20056;-72
2023/05/06 17:46:56;;;;;;;6.90;4.93;;;;;;;;;;10036475;28;20049;-72
2023/05/06 17:51:50;;;;;;;7.05;4.65;;;;;;;;;;10057907;28;20061;-71
2023/05/06 17:56:49;;;;;;;7.95;4.00;;;;;;;;;;10033651;28;20112;-69
2023/05/06 18:01:43;;;;;;;5.95;5.30;;;;;;;;;;10038838;28;20049;-72
2023/05/06 18:06:37;;;;;;;5.60;4.65;;;;;;;;;;10058206;28;20056;-70
2023/05/06 18:11:30;;;;;;;4.90;4.40;;;;;;;;;;10058246;28;20065;-70
2023/05/06 18:16:23;;;;;;;6.22;5.00;;;;;;;;;;10036124;28;20048;-71
2023/05/06 18:21:18;;;;;;;11.70;6.10;;;;;;;;;;10051442;28;20081;-70
2023/05/06 18:26:11;;;;;;;5.68;5.18;;;;;;;;;;10053199;28;20060;-71
2023/05/06 18:31:05;;;;;;;6.43;5.68;;;;;;;;;;10060049;28;20050;-71
2023/05/06 18:35:59;;;;;;;8.05;6.40;;;;;;;;;;10046806;28;20053;-70
2023/05/06 18:40:53;;;;;;;6.90;6.30;;;;;;;;;;10047920;28;20468;-70
2023/05/06 18:45:47;;;;;;;7.60;5.85;;;;;;;;;;10056455;28;20505;-70
2023/05/06 18:50:41;;;;;;;8.38;7.57;;;;;;;;;;10037977;28;20052;-70
2023/05/06 18:55:35;;;;;;;10.57;9.50;;;;;;;;;;10047088;28;20057;-72
2023/05/06 19:00:31;;;;;;;10.95;9.27;;;;;;;;;;10033383;28;20453;-70
2023/05/06 19:05:25;;;;;;;15.68;11.50;;;;;;;;;;10061739;28;20140;-72
2023/05/06 19:10:19;;;;;;;12.10;10.18;;;;;;;;;;10064180;28;20424;-71
2023/05/06 19:15:12;;;;;;;12.25;11.05;;;;;;;;;;10066653;28;20137;-71
2023/05/06 19:20:08;;;;;;;12.25;11.15;;;;;;;;;;10067945;28;20136;-70
2023/05/06 19:25:02;;;;;;;15.55;10.73;;;;;;;;;;10054720;28;20084;-72
2023/05/06 19:29:55;;;;;;;13.20;9.95;;;;;;;;;;10046773;28;20077;-71
2023/05/06 19:34:48;;;;;;;10.88;9.93;;;;;;;;;;10056983;28;20057;-72
2023/05/06 19:39:42;;;;;;;12.05;10.27;;;;;;;;;;10030550;28;20072;-76
2023/05/06 19:44:35;;;;;;;10.73;9.73;;;;;;;;;;10050663;28;20059;-76
2023/05/06 19:49:31;;;;;;;11.48;10.38;;;;;;;;;;10050177;28;20050;-79
2023/05/06 19:54:25;;;;;;;11.85;10.63;;;;;;;;;;10047340;28;20443;-79
2023/05/06 19:59:19;;;;;;;15.07;11.63;;;;;;;;;;10049535;28;20049;-77
2023/05/06 20:04:13;;;;;;;11.80;10.70;;;;;;;;;;10050659;28;20058;-79
2023/05/06 20:09:05;;;;;;;11.77;10.70;;;;;;;;;;10053274;28;20133;-84
2023/05/06 20:13:59;;;;;;;11.45;10.13;;;;;;;;;;10051146;28;20421;-77
2023/05/06 20:18:52;;;;;;;11.07;10.07;;;;;;;;;;10057083;28;20092;-78
2023/05/06 20:23:45;;;;;;;10.73;9.73;;;;;;;;;;10053426;28;20386;-78
2023/05/06 20:28:39;;;;;;;11.15;10.15;;;;;;;;;;10043812;28;20536;-76
2023/05/06 20:33:33;;;;;;;10.52;9.30;;;;;;;;;;10054625;28;20058;-71
2023/05/06 20:38:28;;;;;;;11.75;10.55;;;;;;;;;;10045129;28;20049;-75
2023/05/06 20:43:22;;;;;;;10.70;9.70;;;;;;;;;;10050033;28;20060;-75
2023/05/06 20:48:16;;;;;;;10.95;9.98;;;;;;;;;;10058117;28;20053;-76
2023/05/06 20:53:10;;;;;;;12.63;11.30;;;;;;;;;;10043890;28;20480;-68
2023/05/06 20:58:05;;;;;;;12.35;10.30;;;;;;;;;;10039712;28;20559;-71
2023/05/06 21:02:59;;;;;;;11.30;10.20;;;;;;;;;;10056449;28;20125;-69
2023/05/06 21:07:54;;;;;;;15.43;13.95;;;;;;;;;;10045703;28;20120;-67
2023/05/06 21:12:48;;;;;;;14.23;12.77;;;;;;;;;;10045991;28;20047;-70
2023/05/06 21:17:42;;;;;;;17.00;15.50;;;;;;;;;;10047479;28;20076;-69
2023/05/06 21:22:36;;;;;;;20.10;14.23;;;;;;;;;;10046479;28;20046;-70
2023/05/06 21:27:31;;;;;;;16.48;15.00;;;;;;;;;;10048520;28;20081;-70
2023/05/06 21:32:24;;;;;;;17.75;15.82;;;;;;;;;;10042271;28;20513;-69
2023/05/06 21:37:18;;;;;;;18.15;14.90;;;;;;;;;;10047053;28;20446;-69
2023/05/06 21:42:13;;;;;;;15.23;13.77;;;;;;;;;;10051057;28;20050;-70
2023/05/06 21:47:05;;;;;;;16.27;14.68;;;;;;;;;;10045138;28;20057;-70
2023/05/06 21:51:59;;;;;;;17.50;15.98;;;;;;;;;;10056298;28;20058;-69
2023/05/06 21:56:52;;;;;;;18.10;16.40;;;;;;;;;;10055016;28;20120;-71
2023/05/06 22:01:45;;;;;;;18.83;16.88;;;;;;;;;;10060446;28;20060;-69
2023/05/06 22:06:39;;;;;;;17.48;15.88;;;;;;;;;;10051756;28;20072;-70
2023/05/06 22:11:32;;;;;;;19.27;15.13;;;;;;;;;;10052373;28;20135;-68
2023/05/06 22:16:26;;;;;;;17.75;16.05;;;;;;;;;;10046147;28;20504;-70
2023/05/06 22:21:23;;;;;;;17.20;15.27;;;;;;;;;;10039532;28;20061;-70
2023/05/06 22:26:20;;;;;;;19.08;17.10;;;;;;;;;;10038753;28;20049;-69
2023/05/06 22:31:16;;;;;;;18.23;16.33;;;;;;;;;;10043113;28;20050;-69
2023/05/06 22:36:12;;;;;;;17.52;15.93;;;;;;;;;;10048698;28;20057;-68
2023/05/06 22:41:12;;;;;;;19.27;17.35;;;;;;;;;;10057223;28;20045;-69
2023/05/06 22:46:14;;;;;;;18.77;17.05;;;;;;;;;;10057206;28;20092;-70
2023/05/06 22:51:15;;;;;;;18.48;16.77;;;;;;;;;;10065212;28;20061;-70
2023/05/06 22:56:16;;;;;;;17.38;15.73;;;;;;;;;;10056050;28;20049;-71
2023/05/06 23:01:11;;;;;;;18.13;16.30;;;;;;;;;;10049855;28;20049;-71
2023/05/06 23:06:14;;;;;;;18.75;16.95;;;;;;;;;;10063082;28;20756;-71
2023/05/06 23:11:18;;;;;;;16.27;14.65;;;;;;;;;;10051424;28;20115;-70
2023/05/06 23:16:16;;;;;;;18.00;16.20;;;;;;;;;;10039652;28;20057;-71
2023/05/06 23:21:11;;;;;;;17.85;16.25;;;;;;;;;;10050947;28;20578;-70
2023/05/06 23:26:06;;;;;;;18.70;16.90;;;;;;;;;;10043105;28;20489;-70
2023/05/06 23:31:00;;;;;;;18.00;16.23;;;;;;;;;;10041709;28;20038;-70
2023/05/06 23:35:55;;;;;;;19.20;17.35;;;;;;;;;;10044916;28;20045;-70
2023/05/06 23:40:51;;;;;;;20.33;18.35;;;;;;;;;;10046466;28;20128;-68
2023/05/06 23:45:47;;;;;;;19.58;16.40;;;;;;;;;;10057828;28;20057;-71
2023/05/06 23:50:41;;;;;;;24.42;17.48;;;;;;;;;;10043160;28;20061;-71
2023/05/06 23:55:34;;;;;;;20.10;17.45;;;;;;;;;;10056484;28;20058;-71
